Maplewood, WI

6:41 PM CST on November 13, 2019 (GMT -0600)
Sturgeon Bay | | Change Station
Active Advisory: Special Statement

Elev 705 ft 44.76 °N, 87.46 °W | Updated 14 seconds ago

Snow
Snow
19.2 °F
Feels Like 19 °F
N
2.7
Wind Variable Wind from SSW
Gusts 4.5 mph

Today
High -- | Low -- °F
--% Chance of Precip.
Yesterday
High -- | Low -- °F
Precip. -- in
Pressure 30.04 in
Visibility 1.8 miles
Clouds Mostly Cloudy 2800 ft
Overcast 3300 ft
Windchill 19 °F
Dew Point 16 °F
Humidity 89%
Rainfall 0.00 in
Snow Depth Not available.
6:43 AM 4:23 PM
Full, 98% visible
METAR KSUE 132356Z AUTO 21008KT 1 3/4SM -SN BR BKN028 OVC033 M07/M09 A3000 RMK AO2 SLP171 P0000 60000 T10721089 11072 21083 51005 FZRANO $
Pressure 30.04 in
Visibility 1.8 miles
Clouds Mostly Cloudy 2800 ft
Overcast 3300 ft
Windchill 19 °F
Dew Point 16 °F
Humidity 89%
Rainfall 0.00 in
Snow Depth Not available.
6:43 AM 4:23 PM
Full, 98% visible
METAR KSUE 132356Z AUTO 21008KT 1 3/4SM -SN BR BKN028 OVC033 M07/M09 A3000 RMK AO2 SLP171 P0000 60000 T10721089 11072 21083 51005 FZRANO $

Get Your Daily Forecast Email!

Thanks for signing up!

Be on the lookout for a verification email in your inbox.

You'll start receiving severe weather alerts in your inbox..

×

10-Day Weather Forecast

Almanac

Astronomy

Nov. 13, 2019 Rise Set
Actual Time
Civil Twilight
Nautical Twilight
Astronomical Twilight
Moon
Length of Visible Light
Length of Day
Tomorrow will be .
, % of the Moon is Illuminated

Today's Extremes

State Highs State Lows

Community

WunderPhotos

Category 6

Welcome to Category 6. This is the collective home for Weather Underground's featured writeups by Dr. Jeff Masters (right), Bob Henson (left), Chris Burt, and other regular contributors.

Nearby

Air Quality

  Air Quality AQ Index Pollutant
Not available.

Snow Depth

Station Depth Elevation

Earthquake Activity

City Distance Mag. Time & Date
Minimum magnitude displayed is 2.5.

Coastal Water Temperatures

Place Temperature

Stations

Nearby Weather Stations

Station Location Temp. Windchill Dew Point Humidity Wind Precip. Elev Updated Type
                   

Watches & Warnings

Special Statement
Issued: 2:27 PM CST Nov. 13, 2019 – National Weather Service

... Snow covered and slippery roads expected for the afternoon
and evening commute...

Light snow will gradually diminish and end from northwest to
southeast this afternoon or this evening. Any additional
accumulation should be less than an inch across central
Wisconsin, with around an inch or less across much of
northeast Wisconsin.

Motorists should anticipate snow covered and slippery roads
for the afternoon or evening commute. If you have travel plans
through this evening, allow extra time to reach your destination.
Slow down and leave plenty of space between your vehicle and the
one ahead of you.


Eckberg